sensor_id;sensor_type;location;lat;lon;timestamp;pressure;altitude;pressure_sealevel;temperature;humidity
32474;BME280;41885;53.190;7.984;2022-08-21T00:03:30;101623.81;;;16.73;72.17
32474;BME280;41885;53.190;7.984;2022-08-21T00:07:32;101610.69;;;16.70;72.45
32474;BME280;41885;53.190;7.984;2022-08-21T00:11:37;101601.78;;;16.70;72.23
32474;BME280;41885;53.190;7.984;2022-08-21T00:15:40;101608.19;;;16.69;72.36
32474;BME280;41885;53.190;7.984;2022-08-21T00:19:44;101606.88;;;16.65;72.67
32474;BME280;41885;53.190;7.984;2022-08-21T00:23:46;101596.34;;;16.55;78.89
32474;BME280;41885;53.190;7.984;2022-08-21T00:27:48;101594.00;;;16.52;72.76
32474;BME280;41885;53.190;7.984;2022-08-21T00:31:50;101592.72;;;16.48;72.65
32474;BME280;41885;53.190;7.984;2022-08-21T00:35:54;101590.22;;;16.46;72.77
32474;BME280;41885;53.190;7.984;2022-08-21T00:39:56;101591.41;;;16.44;72.90
32474;BME280;41885;53.190;7.984;2022-08-21T00:43:58;101590.38;;;16.45;72.68
32474;BME280;41885;53.190;7.984;2022-08-21T00:48:00;101582.47;;;16.43;72.83
32474;BME280;41885;53.190;7.984;2022-08-21T00:52:07;101577.44;;;16.40;72.88
32474;BME280;41885;53.190;7.984;2022-08-21T00:56:11;101579.13;;;16.41;73.22
32474;BME280;41885;53.190;7.984;2022-08-21T01:00:17;101581.97;;;16.40;73.18
32474;BME280;41885;53.190;7.984;2022-08-21T01:04:20;101578.72;;;16.30;72.80
32474;BME280;41885;53.190;7.984;2022-08-21T01:08:24;101574.22;;;16.22;73.19
32474;BME280;41885;53.190;7.984;2022-08-21T01:12:28;101581.66;;;16.20;72.90
32474;BME280;41885;53.190;7.984;2022-08-21T01:16:31;101580.34;;;16.16;73.07
32474;BME280;41885;53.190;7.984;2022-08-21T01:20:34;101585.91;;;16.14;73.25
32474;BME280;41885;53.190;7.984;2022-08-21T01:24:38;101582.63;;;16.04;73.25
32474;BME280;41885;53.190;7.984;2022-08-21T01:28:46;101589.53;;;16.07;73.55
32474;BME280;41885;53.190;7.984;2022-08-21T01:32:50;101582.50;;;15.97;73.42
32474;BME280;41885;53.190;7.984;2022-08-21T01:36:53;101585.75;;;15.93;73.85
32474;BME280;41885;53.190;7.984;2022-08-21T01:40:56;101591.16;;;15.93;73.82
32474;BME280;41885;53.190;7.984;2022-08-21T01:44:59;101586.94;;;15.90;74.18
32474;BME280;41885;53.190;7.984;2022-08-21T01:49:01;101582.03;;;15.94;74.02
32474;BME280;41885;53.190;7.984;2022-08-21T01:53:03;101584.41;;;15.89;73.85
32474;BME280;41885;53.190;7.984;2022-08-21T01:57:07;101575.22;;;15.83;74.38
32474;BME280;41885;53.190;7.984;2022-08-21T02:01:10;101578.88;;;15.90;74.61
32474;BME280;41885;53.190;7.984;2022-08-21T02:05:12;101580.13;;;15.79;74.69
32474;BME280;41885;53.190;7.984;2022-08-21T02:09:15;101570.00;;;15.81;74.59
32474;BME280;41885;53.190;7.984;2022-08-21T02:13:19;101565.44;;;15.82;74.55
32474;BME280;41885;53.190;7.984;2022-08-21T02:17:21;101564.44;;;15.83;74.45
32474;BME280;41885;53.190;7.984;2022-08-21T02:21:23;101564.47;;;15.75;74.31
32474;BME280;41885;53.190;7.984;2022-08-21T02:25:27;101581.03;;;15.64;74.37
32474;BME280;41885;53.190;7.984;2022-08-21T02:29:31;101590.78;;;15.33;78.79
32474;BME280;41885;53.190;7.984;2022-08-21T02:33:33;101586.75;;;15.29;74.81
32474;BME280;41885;53.190;7.984;2022-08-21T02:37:43;101587.78;;;15.28;75.77
32474;BME280;41885;53.190;7.984;2022-08-21T02:41:45;101587.41;;;15.31;74.94
32474;BME280;41885;53.190;7.984;2022-08-21T02:45:49;101578.69;;;15.29;75.04
32474;BME280;41885;53.190;7.984;2022-08-21T02:49:52;101573.59;;;15.34;75.09
32474;BME280;41885;53.190;7.984;2022-08-21T02:53:54;101574.28;;;15.37;75.21
32474;BME280;41885;53.190;7.984;2022-08-21T02:57:57;101554.59;;;15.36;75.25
32474;BME280;41885;53.190;7.984;2022-08-21T03:02:00;101559.13;;;15.35;74.76
32474;BME280;41885;53.190;7.984;2022-08-21T03:06:03;101548.03;;;15.30;75.31
32474;BME280;41885;53.190;7.984;2022-08-21T03:10:06;101543.50;;;15.31;74.94
32474;BME280;41885;53.190;7.984;2022-08-21T03:14:08;101553.13;;;15.25;75.16
32474;BME280;41885;53.190;7.984;2022-08-21T03:18:12;101547.44;;;15.20;75.50
32474;BME280;41885;53.190;7.984;2022-08-21T03:22:15;101547.56;;;15.27;75.69
32474;BME280;41885;53.190;7.984;2022-08-21T03:26:17;101554.47;;;15.21;75.41
32474;BME280;41885;53.190;7.984;2022-08-21T03:30:21;101538.25;;;15.06;75.33
32474;BME280;41885;53.190;7.984;2022-08-21T03:34:24;101549.38;;;15.03;75.46
32474;BME280;41885;53.190;7.984;2022-08-21T03:38:28;101550.19;;;15.04;75.86
32474;BME280;41885;53.190;7.984;2022-08-21T03:42:31;101553.50;;;15.14;75.79
32474;BME280;41885;53.190;7.984;2022-08-21T03:46:33;101543.06;;;15.19;75.77
32474;BME280;41885;53.190;7.984;2022-08-21T03:50:40;101543.00;;;15.27;76.23
32474;BME280;41885;53.190;7.984;2022-08-21T03:54:42;101540.66;;;15.24;75.71
32474;BME280;41885;53.190;7.984;2022-08-21T03:58:44;101542.75;;;15.14;76.10
32474;BME280;41885;53.190;7.984;2022-08-21T04:02:47;101549.50;;;15.10;76.32
32474;BME280;41885;53.190;7.984;2022-08-21T04:06:50;101548.88;;;15.00;76.44
32474;BME280;41885;53.190;7.984;2022-08-21T04:10:55;101546.53;;;14.97;76.67
32474;BME280;41885;53.190;7.984;2022-08-21T04:14:58;101544.00;;;14.95;76.67
32474;BME280;41885;53.190;7.984;2022-08-21T04:19:02;101540.81;;;15.00;76.56
32474;BME280;41885;53.190;7.984;2022-08-21T04:23:06;101556.94;;;15.00;76.34
32474;BME280;41885;53.190;7.984;2022-08-21T04:27:08;101551.06;;;14.96;76.61
32474;BME280;41885;53.190;7.984;2022-08-21T04:31:10;101554.41;;;14.98;76.89
32474;BME280;41885;53.190;7.984;2022-08-21T04:35:14;101563.50;;;14.97;76.79
32474;BME280;41885;53.190;7.984;2022-08-21T04:39:18;101568.91;;;14.97;76.79
32474;BME280;41885;53.190;7.984;2022-08-21T04:43:20;101567.06;;;14.89;76.86
32474;BME280;41885;53.190;7.984;2022-08-21T04:47:24;101562.34;;;14.83;77.00
32474;BME280;41885;53.190;7.984;2022-08-21T04:51:28;101570.63;;;14.82;76.91
32474;BME280;41885;53.190;7.984;2022-08-21T04:55:32;101573.66;;;14.87;77.43
32474;BME280;41885;53.190;7.984;2022-08-21T04:59:36;101575.63;;;14.93;77.60
32474;BME280;41885;53.190;7.984;2022-08-21T05:03:40;101578.63;;;14.98;77.54
32474;BME280;41885;53.190;7.984;2022-08-21T05:07:42;101580.50;;;14.98;77.41
32474;BME280;41885;53.190;7.984;2022-08-21T05:11:47;101576.81;;;14.91;77.59
32474;BME280;41885;53.190;7.984;2022-08-21T05:15:50;101582.69;;;14.94;77.83
32474;BME280;41885;53.190;7.984;2022-08-21T05:19:52;101576.28;;;14.95;77.78
32474;BME280;41885;53.190;7.984;2022-08-21T05:23:55;101580.97;;;15.01;78.30
32474;BME280;41885;53.190;7.984;2022-08-21T05:27:58;101583.50;;;15.03;77.90
32474;BME280;41885;53.190;7.984;2022-08-21T05:32:00;101579.97;;;15.02;77.81
32474;BME280;41885;53.190;7.984;2022-08-21T05:36:03;101578.63;;;15.06;77.69
32474;BME280;41885;53.190;7.984;2022-08-21T05:40:06;101577.28;;;15.02;81.81
32474;BME280;41885;53.190;7.984;2022-08-21T05:44:10;101578.44;;;15.08;77.49
32474;BME280;41885;53.190;7.984;2022-08-21T05:48:14;101576.22;;;15.11;77.53
32474;BME280;41885;53.190;7.984;2022-08-21T05:52:18;101564.75;;;15.18;77.48
32474;BME280;41885;53.190;7.984;2022-08-21T05:56:21;101572.34;;;15.22;77.14
32474;BME280;41885;53.190;7.984;2022-08-21T06:00:24;101565.56;;;15.26;77.35
32474;BME280;41885;53.190;7.984;2022-08-21T06:04:26;101564.88;;;15.32;77.33
32474;BME280;41885;53.190;7.984;2022-08-21T06:08:29;101559.78;;;15.38;77.30
32474;BME280;41885;53.190;7.984;2022-08-21T06:12:31;101563.59;;;15.51;77.05
32474;BME280;41885;53.190;7.984;2022-08-21T06:16:35;101567.91;;;15.61;77.18
32474;BME280;41885;53.190;7.984;2022-08-21T06:20:37;101566.50;;;15.73;76.95
32474;BME280;41885;53.190;7.984;2022-08-21T06:24:39;101571.69;;;15.83;76.92
32474;BME280;41885;53.190;7.984;2022-08-21T06:28:42;101566.06;;;15.92;76.74
32474;BME280;41885;53.190;7.984;2022-08-21T06:32:45;101562.56;;;16.07;76.79
32474;BME280;41885;53.190;7.984;2022-08-21T06:36:47;101568.38;;;16.18;76.62
32474;BME280;41885;53.190;7.984;2022-08-21T06:40:49;101565.06;;;16.31;76.69
32474;BME280;41885;53.190;7.984;2022-08-21T06:44:51;101571.31;;;16.46;76.59
32474;BME280;41885;53.190;7.984;2022-08-21T06:48:55;101564.06;;;16.62;76.25
32474;BME280;41885;53.190;7.984;2022-08-21T06:52:59;101565.78;;;16.78;76.25
32474;BME280;41885;53.190;7.984;2022-08-21T06:57:02;101553.97;;;16.93;75.83
32474;BME280;41885;53.190;7.984;2022-08-21T07:01:04;101565.03;;;17.13;76.20
32474;BME280;41885;53.190;7.984;2022-08-21T07:05:08;101560.25;;;17.30;75.98
32474;BME280;41885;53.190;7.984;2022-08-21T07:09:11;101553.22;;;17.51;75.40
32474;BME280;41885;53.190;7.984;2022-08-21T07:13:13;101555.75;;;17.74;75.15
32474;BME280;41885;53.190;7.984;2022-08-21T07:17:15;101552.69;;;17.98;74.67
32474;BME280;41885;53.190;7.984;2022-08-21T07:21:19;101553.94;;;18.24;74.36
32474;BME280;41885;53.190;7.984;2022-08-21T07:25:21;101553.75;;;18.53;73.61
32474;BME280;41885;53.190;7.984;2022-08-21T07:29:22;101556.88;;;19.26;75.47
32474;BME280;41885;53.190;7.984;2022-08-21T07:33:25;101554.97;;;22.10;72.82
32474;BME280;41885;53.190;7.984;2022-08-21T07:37:29;101558.66;;;25.17;67.59
32474;BME280;41885;53.190;7.984;2022-08-21T07:41:31;101564.94;;;27.86;62.90
32474;BME280;41885;53.190;7.984;2022-08-21T07:45:35;101564.06;;;29.96;59.24
32474;BME280;41885;53.190;7.984;2022-08-21T07:49:37;101565.56;;;31.59;55.49
32474;BME280;41885;53.190;7.984;2022-08-21T07:53:40;101578.03;;;32.83;51.70
32474;BME280;41885;53.190;7.984;2022-08-21T07:57:43;101562.19;;;34.07;50.85
32474;BME280;41885;53.190;7.984;2022-08-21T08:01:45;101567.22;;;35.21;49.28
32474;BME280;41885;53.190;7.984;2022-08-21T08:05:47;101561.97;;;36.14;47.61
32474;BME280;41885;53.190;7.984;2022-08-21T08:09:51;101555.22;;;36.77;46.14
32474;BME280;41885;53.190;7.984;2022-08-21T08:13:53;101559.63;;;37.62;44.95
32474;BME280;41885;53.190;7.984;2022-08-21T08:17:55;101549.47;;;38.01;44.55
32474;BME280;41885;53.190;7.984;2022-08-21T08:21:57;101561.50;;;38.40;43.70
32474;BME280;41885;53.190;7.984;2022-08-21T08:26:01;101559.69;;;38.73;42.98
32474;BME280;41885;53.190;7.984;2022-08-21T08:30:05;101556.66;;;39.17;41.91
32474;BME280;41885;53.190;7.984;2022-08-21T08:34:07;101562.13;;;39.13;41.07
32474;BME280;41885;53.190;7.984;2022-08-21T08:38:09;101562.25;;;39.17;40.68
32474;BME280;41885;53.190;7.984;2022-08-21T08:42:24;101545.03;;;38.85;38.98
32474;BME280;41885;53.190;7.984;2022-08-21T08:46:33;101552.47;;;39.32;38.90
32474;BME280;41885;53.190;7.984;2022-08-21T08:50:41;101556.19;;;39.78;38.18
32474;BME280;41885;53.190;7.984;2022-08-21T08:54:47;101551.44;;;38.47;38.63
32474;BME280;41885;53.190;7.984;2022-08-21T08:58:56;101540.41;;;38.04;38.92
32474;BME280;41885;53.190;7.984;2022-08-21T09:03:02;101541.69;;;38.62;38.66
32474;BME280;41885;53.190;7.984;2022-08-21T09:07:12;101539.94;;;38.78;36.40
32474;BME280;41885;53.190;7.984;2022-08-21T09:11:25;101544.09;;;39.02;36.31
32474;BME280;41885;53.190;7.984;2022-08-21T09:15:33;101542.97;;;39.45;35.71
32474;BME280;41885;53.190;7.984;2022-08-21T09:19:48;101548.44;;;39.95;34.24
32474;BME280;41885;53.190;7.984;2022-08-21T09:23:57;101540.47;;;40.43;35.26
32474;BME280;41885;53.190;7.984;2022-08-21T09:28:01;101538.38;;;40.89;34.70
32474;BME280;41885;53.190;7.984;2022-08-21T09:32:15;101531.38;;;41.07;26.86
32474;BME280;41885;53.190;7.984;2022-08-21T09:36:24;101538.75;;;41.96;32.04
32474;BME280;41885;53.190;7.984;2022-08-21T09:40:31;101527.34;;;42.53;33.03
32474;BME280;41885;53.190;7.984;2022-08-21T09:44:36;101532.22;;;43.07;32.28
32474;BME280;41885;53.190;7.984;2022-08-21T09:48:45;101526.72;;;43.30;30.78
32474;BME280;41885;53.190;7.984;2022-08-21T09:52:51;101532.31;;;42.75;31.21
32474;BME280;41885;53.190;7.984;2022-08-21T09:56:56;101534.44;;;42.31;31.38
32474;BME280;41885;53.190;7.984;2022-08-21T10:01:18;101530.09;;;42.33;31.32
32474;BME280;41885;53.190;7.984;2022-08-21T10:05:25;101523.03;;;42.39;30.48
32474;BME280;41885;53.190;7.984;2022-08-21T10:09:28;101523.97;;;42.79;30.88
32474;BME280;41885;53.190;7.984;2022-08-21T10:13:41;101511.84;;;42.75;27.62
32474;BME280;41885;53.190;7.984;2022-08-21T10:17:53;101524.16;;;42.86;27.70
32474;BME280;41885;53.190;7.984;2022-08-21T10:22:08;101508.47;;;42.69;28.53
32474;BME280;41885;53.190;7.984;2022-08-21T10:26:26;101501.44;;;41.52;28.54
32474;BME280;41885;53.190;7.984;2022-08-21T10:30:38;101498.13;;;40.57;30.55
32474;BME280;41885;53.190;7.984;2022-08-21T10:34:53;101487.56;;;41.03;29.05
32474;BME280;41885;53.190;7.984;2022-08-21T10:39:12;101502.31;;;41.28;26.22
32474;BME280;41885;53.190;7.984;2022-08-21T10:43:23;101488.78;;;41.74;29.96
32474;BME280;41885;53.190;7.984;2022-08-21T10:47:34;101491.28;;;41.91;28.93
32474;BME280;41885;53.190;7.984;2022-08-21T10:51:40;101486.22;;;42.13;29.77
32474;BME280;41885;53.190;7.984;2022-08-21T10:55:54;101509.53;;;42.29;28.86
32474;BME280;41885;53.190;7.984;2022-08-21T11:00:03;101496.44;;;42.05;28.30
32474;BME280;41885;53.190;7.984;2022-08-21T11:04:12;101487.59;;;41.59;28.00
32474;BME280;41885;53.190;7.984;2022-08-21T11:08:22;101482.44;;;41.61;29.18
32474;BME280;41885;53.190;7.984;2022-08-21T11:12:31;101487.22;;;41.61;28.70
32474;BME280;41885;53.190;7.984;2022-08-21T11:16:40;101495.13;;;41.15;28.62
32474;BME280;41885;53.190;7.984;2022-08-21T11:20:49;101497.19;;;40.16;28.94
32474;BME280;41885;53.190;7.984;2022-08-21T11:24:57;101490.09;;;38.89;30.11
32474;BME280;41885;53.190;7.984;2022-08-21T11:29:09;101483.50;;;38.94;28.80
32474;BME280;41885;53.190;7.984;2022-08-21T11:33:27;101489.81;;;38.82;28.29
32474;BME280;41885;53.190;7.984;2022-08-21T11:37:44;101484.47;;;38.68;29.13
32474;BME280;41885;53.190;7.984;2022-08-21T11:42:01;101477.97;;;38.85;28.43
32474;BME280;41885;53.190;7.984;2022-08-21T11:46:22;101480.38;;;38.66;28.99
32474;BME280;41885;53.190;7.984;2022-08-21T11:50:28;101479.19;;;38.37;29.51
32474;BME280;41885;53.190;7.984;2022-08-21T11:54:36;101488.09;;;36.96;29.67
32474;BME280;41885;53.190;7.984;2022-08-21T11:58:41;101477.38;;;35.93;30.32
32474;BME280;41885;53.190;7.984;2022-08-21T12:02:50;101476.44;;;35.30;30.15
32474;BME280;41885;53.190;7.984;2022-08-21T12:06:53;101470.28;;;34.83;30.42
32474;BME280;41885;53.190;7.984;2022-08-21T12:11:01;101480.56;;;34.41;30.18
32474;BME280;41885;53.190;7.984;2022-08-21T12:15:15;101467.38;;;33.72;30.62
32474;BME280;41885;53.190;7.984;2022-08-21T12:19:30;101466.97;;;33.27;30.26
32474;BME280;41885;53.190;7.984;2022-08-21T12:23:44;101477.06;;;32.80;31.27
32474;BME280;41885;53.190;7.984;2022-08-21T12:27:51;101465.69;;;32.34;31.18
32474;BME280;41885;53.190;7.984;2022-08-21T12:31:57;101455.06;;;31.93;31.66
32474;BME280;41885;53.190;7.984;2022-08-21T12:36:06;101460.09;;;31.52;31.94
32474;BME280;41885;53.190;7.984;2022-08-21T12:40:13;101457.91;;;31.09;32.57
32474;BME280;41885;53.190;7.984;2022-08-21T12:44:24;101448.97;;;30.73;33.13
32474;BME280;41885;53.190;7.984;2022-08-21T12:48:33;101457.84;;;30.59;32.95
32474;BME280;41885;53.190;7.984;2022-08-21T12:52:41;101452.66;;;30.48;32.98
32474;BME280;41885;53.190;7.984;2022-08-21T12:56:56;101439.19;;;30.36;33.40
32474;BME280;41885;53.190;7.984;2022-08-21T13:01:03;101441.44;;;30.19;33.32
32474;BME280;41885;53.190;7.984;2022-08-21T13:05:06;101456.31;;;30.07;33.62
32474;BME280;41885;53.190;7.984;2022-08-21T13:09:13;101440.38;;;29.89;33.16
32474;BME280;41885;53.190;7.984;2022-08-21T13:13:19;101442.00;;;29.54;33.66
32474;BME280;41885;53.190;7.984;2022-08-21T13:17:24;101443.41;;;29.36;33.32
32474;BME280;41885;53.190;7.984;2022-08-21T13:21:31;101443.63;;;29.14;33.80
32474;BME280;41885;53.190;7.984;2022-08-21T13:25:36;101439.97;;;28.93;34.12
32474;BME280;41885;53.190;7.984;2022-08-21T13:29:38;101446.59;;;28.97;34.21
32474;BME280;41885;53.190;7.984;2022-08-21T13:33:41;101437.25;;;28.98;34.50
32474;BME280;41885;53.190;7.984;2022-08-21T13:37:44;101431.19;;;28.91;34.61
32474;BME280;41885;53.190;7.984;2022-08-21T13:41:51;101439.09;;;28.78;34.30
32474;BME280;41885;53.190;7.984;2022-08-21T13:45:56;101448.97;;;28.68;34.53
32474;BME280;41885;53.190;7.984;2022-08-21T13:49:59;101442.28;;;28.44;34.72
32474;BME280;41885;53.190;7.984;2022-08-21T13:54:02;101442.19;;;28.34;35.21
32474;BME280;41885;53.190;7.984;2022-08-21T13:58:25;101452.56;;;28.21;36.39
32474;BME280;41885;53.190;7.984;2022-08-21T14:02:27;101454.19;;;28.17;35.80
32474;BME280;41885;53.190;7.984;2022-08-21T14:06:34;101440.97;;;28.09;36.17
32474;BME280;41885;53.190;7.984;2022-08-21T14:10:42;101459.06;;;28.05;35.89
32474;BME280;41885;53.190;7.984;2022-08-21T14:14:46;101454.41;;;28.05;36.03
32474;BME280;41885;53.190;7.984;2022-08-21T14:18:51;101446.75;;;28.13;35.97
32474;BME280;41885;53.190;7.984;2022-08-21T14:22:54;101453.06;;;28.13;35.89
32474;BME280;41885;53.190;7.984;2022-08-21T14:27:02;101459.59;;;28.02;35.96
32474;BME280;41885;53.190;7.984;2022-08-21T14:31:16;101457.38;;;27.99;36.54
32474;BME280;41885;53.190;7.984;2022-08-21T14:35:19;101459.66;;;28.12;36.47
32474;BME280;41885;53.190;7.984;2022-08-21T14:39:22;101453.88;;;28.14;36.23
32474;BME280;41885;53.190;7.984;2022-08-21T14:43:25;101458.25;;;28.10;36.37
32474;BME280;41885;53.190;7.984;2022-08-21T14:47:29;101473.56;;;27.95;36.46
32474;BME280;41885;53.190;7.984;2022-08-21T14:51:31;101463.53;;;27.79;36.84
32474;BME280;41885;53.190;7.984;2022-08-21T14:55:33;101459.28;;;27.66;36.77
32474;BME280;41885;53.190;7.984;2022-08-21T14:59:56;101456.16;;;27.52;37.30
32474;BME280;41885;53.190;7.984;2022-08-21T15:04:00;101455.44;;;27.35;38.22
32474;BME280;41885;53.190;7.984;2022-08-21T15:08:03;101455.69;;;27.33;37.39
32474;BME280;41885;53.190;7.984;2022-08-21T15:12:06;101460.56;;;27.26;37.83
32474;BME280;41885;53.190;7.984;2022-08-21T15:16:10;101462.22;;;27.27;38.70
32474;BME280;41885;53.190;7.984;2022-08-21T15:20:14;101466.69;;;27.33;39.22
32474;BME280;41885;53.190;7.984;2022-08-21T15:24:16;101468.44;;;27.18;39.86
32474;BME280;41885;53.190;7.984;2022-08-21T15:28:18;101465.44;;;26.97;40.29
32474;BME280;41885;53.190;7.984;2022-08-21T15:32:24;101473.41;;;26.77;40.86
32474;BME280;41885;53.190;7.984;2022-08-21T15:36:29;101472.91;;;26.58;41.57
32474;BME280;41885;53.190;7.984;2022-08-21T15:40:31;101475.28;;;26.49;41.95
32474;BME280;41885;53.190;7.984;2022-08-21T15:44:33;101479.59;;;26.28;42.81
32474;BME280;41885;53.190;7.984;2022-08-21T15:48:35;101475.47;;;26.09;42.94
32474;BME280;41885;53.190;7.984;2022-08-21T15:52:39;101482.41;;;25.94;43.67
32474;BME280;41885;53.190;7.984;2022-08-21T15:56:44;101483.38;;;25.88;44.10
32474;BME280;41885;53.190;7.984;2022-08-21T16:00:47;101490.81;;;25.76;44.54
32474;BME280;41885;53.190;7.984;2022-08-21T16:04:49;101490.97;;;25.69;45.00
32474;BME280;41885;53.190;7.984;2022-08-21T16:08:53;101496.13;;;25.66;45.11
32474;BME280;41885;53.190;7.984;2022-08-21T16:12:56;101484.31;;;25.48;49.56
32474;BME280;41885;53.190;7.984;2022-08-21T16:16:59;101490.94;;;25.52;45.03
32474;BME280;41885;53.190;7.984;2022-08-21T16:21:01;101493.44;;;25.54;45.22
32474;BME280;41885;53.190;7.984;2022-08-21T16:25:06;101492.94;;;25.57;45.66
32474;BME280;41885;53.190;7.984;2022-08-21T16:29:09;101498.44;;;25.57;45.95
32474;BME280;41885;53.190;7.984;2022-08-21T16:33:19;101500.50;;;25.50;46.35
32474;BME280;41885;53.190;7.984;2022-08-21T16:37:23;101499.56;;;25.44;46.09
32474;BME280;41885;53.190;7.984;2022-08-21T16:41:30;101505.53;;;25.41;46.37
32474;BME280;41885;53.190;7.984;2022-08-21T16:45:33;101500.06;;;25.41;46.10
32474;BME280;41885;53.190;7.984;2022-08-21T16:49:35;101497.81;;;25.38;46.36
32474;BME280;41885;53.190;7.984;2022-08-21T16:53:37;101515.09;;;25.27;46.61
32474;BME280;41885;53.190;7.984;2022-08-21T16:57:41;101513.25;;;25.16;46.82
32474;BME280;41885;53.190;7.984;2022-08-21T17:01:44;101511.59;;;25.03;47.05
32474;BME280;41885;53.190;7.984;2022-08-21T17:05:46;101509.13;;;24.90;47.14
32474;BME280;41885;53.190;7.984;2022-08-21T17:09:49;101506.09;;;24.74;47.52
32474;BME280;41885;53.190;7.984;2022-08-21T17:13:52;101510.72;;;24.62;48.12
32474;BME280;41885;53.190;7.984;2022-08-21T17:17:56;101509.91;;;24.50;48.09
32474;BME280;41885;53.190;7.984;2022-08-21T17:21:58;101519.97;;;24.37;48.60
32474;BME280;41885;53.190;7.984;2022-08-21T17:26:00;101515.22;;;24.21;49.11
32474;BME280;41885;53.190;7.984;2022-08-21T17:30:05;101519.50;;;24.05;49.49
32474;BME280;41885;53.190;7.984;2022-08-21T17:34:07;101523.28;;;23.93;49.60
32474;BME280;41885;53.190;7.984;2022-08-21T17:38:11;101517.81;;;23.81;50.01
32474;BME280;41885;53.190;7.984;2022-08-21T17:42:13;101523.44;;;23.67;50.20
32474;BME280;41885;53.190;7.984;2022-08-21T17:46:20;101527.69;;;23.63;50.54
32474;BME280;41885;53.190;7.984;2022-08-21T17:50:22;101533.03;;;23.58;50.84
32474;BME280;41885;53.190;7.984;2022-08-21T17:54:24;101541.53;;;23.50;51.18
32474;BME280;41885;53.190;7.984;2022-08-21T17:58:26;101535.44;;;23.36;51.56
32474;BME280;41885;53.190;7.984;2022-08-21T18:02:30;101541.28;;;23.21;51.93
32474;BME280;41885;53.190;7.984;2022-08-21T18:06:32;101545.00;;;23.09;52.42
32474;BME280;41885;53.190;7.984;2022-08-21T18:10:35;101547.44;;;22.98;52.95
32474;BME280;41885;53.190;7.984;2022-08-21T18:14:37;101550.81;;;22.94;53.04
32474;BME280;41885;53.190;7.984;2022-08-21T18:18:42;101548.78;;;22.89;53.34
32474;BME280;41885;53.190;7.984;2022-08-21T18:22:44;101557.31;;;22.74;53.71
32474;BME280;41885;53.190;7.984;2022-08-21T18:26:47;101564.16;;;22.59;54.04
32474;BME280;41885;53.190;7.984;2022-08-21T18:30:50;101557.91;;;22.33;59.42
32474;BME280;41885;53.190;7.984;2022-08-21T18:34:56;101567.38;;;22.31;54.34
32474;BME280;41885;53.190;7.984;2022-08-21T18:38:58;101578.09;;;22.25;54.77
32474;BME280;41885;53.190;7.984;2022-08-21T18:43:00;101573.34;;;22.21;55.23
32474;BME280;41885;53.190;7.984;2022-08-21T18:47:06;101575.00;;;22.22;55.39
32474;BME280;41885;53.190;7.984;2022-08-21T18:51:12;101577.34;;;22.18;55.31
32474;BME280;41885;53.190;7.984;2022-08-21T18:55:14;101582.22;;;22.03;60.75
32474;BME280;41885;53.190;7.984;2022-08-21T18:59:17;101581.78;;;22.06;55.37
32474;BME280;41885;53.190;7.984;2022-08-21T19:03:20;101583.28;;;22.02;55.77
32474;BME280;41885;53.190;7.984;2022-08-21T19:07:24;101591.50;;;21.95;56.10
32474;BME280;41885;53.190;7.984;2022-08-21T19:11:27;101598.59;;;21.96;56.35
32474;BME280;41885;53.190;7.984;2022-08-21T19:15:29;101598.81;;;21.95;56.59
32474;BME280;41885;53.190;7.984;2022-08-21T19:19:31;101597.38;;;21.92;56.71
32474;BME280;41885;53.190;7.984;2022-08-21T19:23:35;101601.19;;;21.85;57.20
32474;BME280;41885;53.190;7.984;2022-08-21T19:27:38;101606.66;;;21.78;57.31
32474;BME280;41885;53.190;7.984;2022-08-21T19:31:42;101606.06;;;21.69;57.52
32474;BME280;41885;53.190;7.984;2022-08-21T19:35:47;101610.09;;;21.60;57.74
32474;BME280;41885;53.190;7.984;2022-08-21T19:39:51;101607.25;;;21.48;58.35
32474;BME280;41885;53.190;7.984;2022-08-21T19:43:56;101602.28;;;21.39;58.44
32474;BME280;41885;53.190;7.984;2022-08-21T19:47:59;101595.53;;;21.34;58.69
32474;BME280;41885;53.190;7.984;2022-08-21T19:52:02;101597.47;;;21.27;58.89
32474;BME280;41885;53.190;7.984;2022-08-21T19:56:08;101605.22;;;21.24;59.33
32474;BME280;41885;53.190;7.984;2022-08-21T20:00:15;101604.81;;;21.20;59.88
32474;BME280;41885;53.190;7.984;2022-08-21T20:04:19;101613.59;;;21.22;59.68
32474;BME280;41885;53.190;7.984;2022-08-21T20:08:23;101613.19;;;21.19;59.37
32474;BME280;41885;53.190;7.984;2022-08-21T20:12:27;101611.31;;;21.19;59.84
32474;BME280;41885;53.190;7.984;2022-08-21T20:16:30;101611.91;;;21.21;59.88
32474;BME280;41885;53.190;7.984;2022-08-21T20:20:32;101613.19;;;21.19;60.02
32474;BME280;41885;53.190;7.984;2022-08-21T20:24:34;101613.19;;;21.05;60.33
32474;BME280;41885;53.190;7.984;2022-08-21T20:28:37;101610.94;;;20.96;60.74
32474;BME280;41885;53.190;7.984;2022-08-21T20:32:39;101617.00;;;20.91;60.87
32474;BME280;41885;53.190;7.984;2022-08-21T20:36:41;101618.69;;;20.85;61.11
32474;BME280;41885;53.190;7.984;2022-08-21T20:40:44;101615.34;;;20.83;61.32
32474;BME280;41885;53.190;7.984;2022-08-21T20:44:50;101623.50;;;20.83;61.55
32474;BME280;41885;53.190;7.984;2022-08-21T20:48:53;101621.63;;;20.84;61.41
32474;BME280;41885;53.190;7.984;2022-08-21T20:53:02;101625.78;;;20.80;62.22
32474;BME280;41885;53.190;7.984;2022-08-21T20:57:10;101623.72;;;20.82;62.24
32474;BME280;41885;53.190;7.984;2022-08-21T21:01:15;101635.41;;;20.82;62.09
32474;BME280;41885;53.190;7.984;2022-08-21T21:05:21;101638.75;;;20.84;62.39
32474;BME280;41885;53.190;7.984;2022-08-21T21:09:31;101640.41;;;20.85;62.80
32474;BME280;41885;53.190;7.984;2022-08-21T21:13:38;101629.38;;;20.87;62.90
32474;BME280;41885;53.190;7.984;2022-08-21T21:17:49;101633.94;;;20.86;62.83
32474;BME280;41885;53.190;7.984;2022-08-21T21:21:57;101629.16;;;20.82;62.96